Terminal Aerodrome Forecast
Issued by NWS

Home | Current Version | Previous Version | Text Only | Print | Product List | Glossary Off
Versions: 1 2 3 4 5 6 7 8 9 10 11 12 13 14 15 16 17 18

358
FTUS43 KBIS 240532
TAFMOT
TAF
KMOT 240532Z 2406/2506 14009KT P6SM SKC
     FM241000 16007KT P6SM FEW150 FEW250 WS020/19040KT
     FM241400 17015G25KT P6SM FEW110 SCT250
     FM250000 24013G21KT P6SM VCTS BKN060CB OVC090
     FM250200 30012KT P6SM -TSRA BKN070CB BKN150=

USA.gov is the U.S. government's official web portal to all federal, state and local government web resources and services.